Search for airport 
image banner adimage banner adimage banner ad
image banner ad

67CA - Chapman Farms

Located in Chowchilla, United States

ICAO - 67CA, IATA -

Data provided by Airmate  

General information

Coordinates: N37°4'22" W120°22'42"
Elevation is 175 feet MSL.
Magnetic variation is 15° East
View others Airports in California

Operational data

Special qualification required
Current time UTC:
Current local time:
Weather at : KMAE - Madera Muni ( 25 km )
METAR: KMAE 150853Z AUTO 32012G19KT 10SM CLR 19/07 A3001 RMK AO2 SLP160 T01890072 53010
View NOTAMs / SUP AIP / TFR affecting this airport [VIEW]
Communications frequencies: [VIEW]

Runways:

RWY identifierQFULength (ft)Width (ft)SurfaceLDA (ft)
09300020ASPH
27300020ASPH

Airport contact information

Address: Chowchilla United States

Satellite view of 67CA